sensor_id;sensor_type;location;lat;lon;timestamp;temperature;humidity
17659;DHT22;8948;51.534;8.262;2022-12-18T00:04:53;-2.60;59.20
17659;DHT22;8948;51.534;8.262;2022-12-18T00:09:54;-2.60;59.30
17659;DHT22;8948;51.534;8.262;2022-12-18T00:14:55;-2.60;59.20
17659;DHT22;8948;51.534;8.262;2022-12-18T00:19:55;-2.60;59.40
17659;DHT22;8948;51.534;8.262;2022-12-18T00:24:56;-2.50;59.60
17659;DHT22;8948;51.534;8.262;2022-12-18T00:29:57;-2.50;59.80
17659;DHT22;8948;51.534;8.262;2022-12-18T00:34:57;-2.40;59.90
17659;DHT22;8948;51.534;8.262;2022-12-18T00:39:58;-2.30;59.50
17659;DHT22;8948;51.534;8.262;2022-12-18T00:44:58;-2.30;59.10
17659;DHT22;8948;51.534;8.262;2022-12-18T00:49:59;-2.30;59.10
17659;DHT22;8948;51.534;8.262;2022-12-18T00:55:00;-2.40;59.00
17659;DHT22;8948;51.534;8.262;2022-12-18T01:00:00;-2.40;59.70
17659;DHT22;8948;51.534;8.262;2022-12-18T01:05:01;-2.40;59.70
17659;DHT22;8948;51.534;8.262;2022-12-18T01:10:02;-2.40;59.90
17659;DHT22;8948;51.534;8.262;2022-12-18T01:15:04;-2.40;60.00
17659;DHT22;8948;51.534;8.262;2022-12-18T01:20:06;-2.40;60.00
17659;DHT22;8948;51.534;8.262;2022-12-18T01:25:07;-2.40;60.00
17659;DHT22;8948;51.534;8.262;2022-12-18T01:30:08;-2.40;60.20
17659;DHT22;8948;51.534;8.262;2022-12-18T01:35:09;-2.40;60.60
17659;DHT22;8948;51.534;8.262;2022-12-18T01:40:10;-2.40;60.40
17659;DHT22;8948;51.534;8.262;2022-12-18T01:50:27;-2.40;60.00
17659;DHT22;8948;51.534;8.262;2022-12-18T01:55:32;-2.40;60.40
17659;DHT22;8948;51.534;8.262;2022-12-18T02:00:33;-2.40;60.60
17659;DHT22;8948;51.534;8.262;2022-12-18T02:05:54;-2.40;60.90
17659;DHT22;8948;51.534;8.262;2022-12-18T02:17:00;-2.40;61.20
17659;DHT22;8948;51.534;8.262;2022-12-18T02:22:07;-2.50;61.30
17659;DHT22;8948;51.534;8.262;2022-12-18T02:27:13;-2.50;61.50
17659;DHT22;8948;51.534;8.262;2022-12-18T02:32:24;-2.60;61.60
17659;DHT22;8948;51.534;8.262;2022-12-18T02:37:27;-2.70;61.50
17659;DHT22;8948;51.534;8.262;2022-12-18T02:42:28;-2.70;61.90
17659;DHT22;8948;51.534;8.262;2022-12-18T02:47:31;-2.70;61.80
17659;DHT22;8948;51.534;8.262;2022-12-18T02:52:35;-2.60;61.30
17659;DHT22;8948;51.534;8.262;2022-12-18T02:57:54;-2.70;61.10
17659;DHT22;8948;51.534;8.262;2022-12-18T03:03:06;-2.70;61.00
17659;DHT22;8948;51.534;8.262;2022-12-18T03:08:23;-2.70;60.80
17659;DHT22;8948;51.534;8.262;2022-12-18T03:13:52;-2.70;60.80
17659;DHT22;8948;51.534;8.262;2022-12-18T03:19:01;-2.80;60.60
17659;DHT22;8948;51.534;8.262;2022-12-18T03:24:04;-2.80;60.70
17659;DHT22;8948;51.534;8.262;2022-12-18T03:34:40;-2.90;60.60
17659;DHT22;8948;51.534;8.262;2022-12-18T03:39:42;-2.90;60.30
17659;DHT22;8948;51.534;8.262;2022-12-18T03:54:56;-3.00;60.30
17659;DHT22;8948;51.534;8.262;2022-12-18T04:00:11;-3.00;60.30
17659;DHT22;8948;51.534;8.262;2022-12-18T04:05:13;-3.00;60.20
17659;DHT22;8948;51.534;8.262;2022-12-18T04:10:16;-3.00;60.20
17659;DHT22;8948;51.534;8.262;2022-12-18T04:15:16;-3.00;60.20
17659;DHT22;8948;51.534;8.262;2022-12-18T04:20:17;-2.90;59.90
17659;DHT22;8948;51.534;8.262;2022-12-18T04:25:18;-2.80;59.80
17659;DHT22;8948;51.534;8.262;2022-12-18T04:30:19;-2.80;59.80
17659;DHT22;8948;51.534;8.262;2022-12-18T04:35:19;-2.80;59.60
17659;DHT22;8948;51.534;8.262;2022-12-18T04:40:20;-2.80;59.80
17659;DHT22;8948;51.534;8.262;2022-12-18T04:45:20;-2.80;59.70
17659;DHT22;8948;51.534;8.262;2022-12-18T04:50:21;-2.70;59.60
17659;DHT22;8948;51.534;8.262;2022-12-18T04:55:21;-2.70;59.30
17659;DHT22;8948;51.534;8.262;2022-12-18T05:00:22;-2.70;59.20
17659;DHT22;8948;51.534;8.262;2022-12-18T05:05:23;-2.80;59.40
17659;DHT22;8948;51.534;8.262;2022-12-18T05:10:23;-2.80;59.20
17659;DHT22;8948;51.534;8.262;2022-12-18T05:15:28;-2.90;59.60
17659;DHT22;8948;51.534;8.262;2022-12-18T05:20:29;-2.90;59.90
17659;DHT22;8948;51.534;8.262;2022-12-18T05:25:30;-3.00;60.40
17659;DHT22;8948;51.534;8.262;2022-12-18T05:30:30;-3.00;60.70
17659;DHT22;8948;51.534;8.262;2022-12-18T05:35:31;-3.00;60.90
17659;DHT22;8948;51.534;8.262;2022-12-18T05:40:31;-3.00;61.30
17659;DHT22;8948;51.534;8.262;2022-12-18T05:45:32;-3.10;61.60
17659;DHT22;8948;51.534;8.262;2022-12-18T05:50:37;-3.10;61.90
17659;DHT22;8948;51.534;8.262;2022-12-18T05:55:39;-3.10;61.90
17659;DHT22;8948;51.534;8.262;2022-12-18T06:00:43;-3.00;61.60
17659;DHT22;8948;51.534;8.262;2022-12-18T06:05:45;-2.90;61.40
17659;DHT22;8948;51.534;8.262;2022-12-18T06:10:50;-2.80;61.00
17659;DHT22;8948;51.534;8.262;2022-12-18T06:15:51;-2.80;60.80
17659;DHT22;8948;51.534;8.262;2022-12-18T06:20:56;-2.80;60.80
17659;DHT22;8948;51.534;8.262;2022-12-18T06:25:57;-2.70;60.90
17659;DHT22;8948;51.534;8.262;2022-12-18T06:30:57;-2.60;60.60
17659;DHT22;8948;51.534;8.262;2022-12-18T06:36:06;-2.50;60.10
17659;DHT22;8948;51.534;8.262;2022-12-18T06:41:12;-2.40;59.70
17659;DHT22;8948;51.534;8.262;2022-12-18T06:46:13;-2.40;59.40
17659;DHT22;8948;51.534;8.262;2022-12-18T06:51:16;-2.30;59.10
17659;DHT22;8948;51.534;8.262;2022-12-18T06:56:17;-2.30;58.80
17659;DHT22;8948;51.534;8.262;2022-12-18T07:01:18;-2.30;58.50
17659;DHT22;8948;51.534;8.262;2022-12-18T07:06:20;-2.30;60.90
17659;DHT22;8948;51.534;8.262;2022-12-18T07:11:21;-2.20;59.40
17659;DHT22;8948;51.534;8.262;2022-12-18T07:16:22;-2.20;57.80
17659;DHT22;8948;51.534;8.262;2022-12-18T07:21:24;-2.20;57.20
17659;DHT22;8948;51.534;8.262;2022-12-18T07:26:25;-2.30;57.40
17659;DHT22;8948;51.534;8.262;2022-12-18T07:31:27;-2.30;58.00
17659;DHT22;8948;51.534;8.262;2022-12-18T07:36:27;-2.30;57.30
17659;DHT22;8948;51.534;8.262;2022-12-18T07:41:28;-2.30;57.30
17659;DHT22;8948;51.534;8.262;2022-12-18T07:46:29;-2.30;57.30
17659;DHT22;8948;51.534;8.262;2022-12-18T07:51:29;-2.30;57.20
17659;DHT22;8948;51.534;8.262;2022-12-18T07:56:30;-2.40;57.10
17659;DHT22;8948;51.534;8.262;2022-12-18T08:01:30;-2.40;56.90
17659;DHT22;8948;51.534;8.262;2022-12-18T08:06:31;-2.40;57.10
17659;DHT22;8948;51.534;8.262;2022-12-18T08:11:32;-2.30;57.10
17659;DHT22;8948;51.534;8.262;2022-12-18T08:16:32;-2.30;57.10
17659;DHT22;8948;51.534;8.262;2022-12-18T08:21:33;-2.30;57.90
17659;DHT22;8948;51.534;8.262;2022-12-18T08:26:34;-2.40;58.10
17659;DHT22;8948;51.534;8.262;2022-12-18T08:31:34;-2.40;58.10
17659;DHT22;8948;51.534;8.262;2022-12-18T08:36:35;-2.30;57.90
17659;DHT22;8948;51.534;8.262;2022-12-18T08:41:35;-2.10;57.80
17659;DHT22;8948;51.534;8.262;2022-12-18T08:46:41;-2.00;57.20
17659;DHT22;8948;51.534;8.262;2022-12-18T08:51:42;-1.80;56.60
17659;DHT22;8948;51.534;8.262;2022-12-18T08:56:42;-1.60;56.60
17659;DHT22;8948;51.534;8.262;2022-12-18T09:01:43;-1.50;56.60
17659;DHT22;8948;51.534;8.262;2022-12-18T09:06:43;-1.40;55.80
17659;DHT22;8948;51.534;8.262;2022-12-18T09:11:44;-1.30;56.80
17659;DHT22;8948;51.534;8.262;2022-12-18T09:16:45;-1.10;56.90
17659;DHT22;8948;51.534;8.262;2022-12-18T09:21:45;-0.90;57.30
17659;DHT22;8948;51.534;8.262;2022-12-18T09:26:46;-0.80;57.00
17659;DHT22;8948;51.534;8.262;2022-12-18T09:31:47;-0.90;58.30
17659;DHT22;8948;51.534;8.262;2022-12-18T09:36:50;-1.00;56.70
17659;DHT22;8948;51.534;8.262;2022-12-18T09:41:52;-0.90;56.90
17659;DHT22;8948;51.534;8.262;2022-12-18T09:52:07;-0.40;57.50
17659;DHT22;8948;51.534;8.262;2022-12-18T09:57:18;-0.20;55.00
17659;DHT22;8948;51.534;8.262;2022-12-18T10:02:21;0.00;54.30
17659;DHT22;8948;51.534;8.262;2022-12-18T10:07:53;0.00;55.10
17659;DHT22;8948;51.534;8.262;2022-12-18T10:13:03;0.20;55.20
17659;DHT22;8948;51.534;8.262;2022-12-18T10:23:52;0.90;56.10
17659;DHT22;8948;51.534;8.262;2022-12-18T10:28:54;1.30;54.70
17659;DHT22;8948;51.534;8.262;2022-12-18T10:33:57;1.50;55.10
17659;DHT22;8948;51.534;8.262;2022-12-18T10:39:18;1.80;54.10
17659;DHT22;8948;51.534;8.262;2022-12-18T10:44:23;1.80;52.00
17659;DHT22;8948;51.534;8.262;2022-12-18T10:49:29;2.00;55.30
17659;DHT22;8948;51.534;8.262;2022-12-18T10:54:32;2.20;55.00
17659;DHT22;8948;51.534;8.262;2022-12-18T10:59:50;2.30;54.80
17659;DHT22;8948;51.534;8.262;2022-12-18T11:04:52;2.30;54.80
17659;DHT22;8948;51.534;8.262;2022-12-18T11:10:02;2.30;55.00
17659;DHT22;8948;51.534;8.262;2022-12-18T11:15:03;2.30;55.20
17659;DHT22;8948;51.534;8.262;2022-12-18T11:20:20;2.30;55.30
17659;DHT22;8948;51.534;8.262;2022-12-18T11:25:21;2.30;54.60
17659;DHT22;8948;51.534;8.262;2022-12-18T11:40:36;2.50;55.70
17659;DHT22;8948;51.534;8.262;2022-12-18T11:45:53;2.70;55.20
17659;DHT22;8948;51.534;8.262;2022-12-18T11:50:56;2.90;56.40
17659;DHT22;8948;51.534;8.262;2022-12-18T11:56:12;3.00;55.20
17659;DHT22;8948;51.534;8.262;2022-12-18T12:17:18;3.10;52.10
17659;DHT22;8948;51.534;8.262;2022-12-18T12:22:42;3.10;50.80
17659;DHT22;8948;51.534;8.262;2022-12-18T12:33:37;3.10;48.70
17659;DHT22;8948;51.534;8.262;2022-12-18T12:38:44;3.10;50.50
17659;DHT22;8948;51.534;8.262;2022-12-18T12:43:47;3.20;47.30
17659;DHT22;8948;51.534;8.262;2022-12-18T12:48:55;3.20;47.70
17659;DHT22;8948;51.534;8.262;2022-12-18T12:53:58;3.30;47.00
17659;DHT22;8948;51.534;8.262;2022-12-18T13:04:29;3.30;50.90
17659;DHT22;8948;51.534;8.262;2022-12-18T13:09:32;3.20;48.70
17659;DHT22;8948;51.534;8.262;2022-12-18T13:14:36;3.10;46.70
17659;DHT22;8948;51.534;8.262;2022-12-18T13:19:37;3.20;46.50
17659;DHT22;8948;51.534;8.262;2022-12-18T13:24:38;3.20;49.20
17659;DHT22;8948;51.534;8.262;2022-12-18T13:29:44;3.10;49.00
17659;DHT22;8948;51.534;8.262;2022-12-18T13:34:45;3.10;47.00
17659;DHT22;8948;51.534;8.262;2022-12-18T13:39:45;3.10;48.90
17659;DHT22;8948;51.534;8.262;2022-12-18T13:44:46;3.10;47.80
17659;DHT22;8948;51.534;8.262;2022-12-18T13:49:47;3.00;47.10
17659;DHT22;8948;51.534;8.262;2022-12-18T13:54:51;3.00;46.50
17659;DHT22;8948;51.534;8.262;2022-12-18T13:59:52;3.00;47.60
17659;DHT22;8948;51.534;8.262;2022-12-18T14:04:53;3.00;48.10
17659;DHT22;8948;51.534;8.262;2022-12-18T14:09:57;3.00;47.00
17659;DHT22;8948;51.534;8.262;2022-12-18T14:14:58;3.10;47.00
17659;DHT22;8948;51.534;8.262;2022-12-18T14:20:00;3.10;46.30
17659;DHT22;8948;51.534;8.262;2022-12-18T14:30:27;2.70;49.40
17659;DHT22;8948;51.534;8.262;2022-12-18T14:35:29;2.70;48.20
17659;DHT22;8948;51.534;8.262;2022-12-18T14:40:30;2.70;48.30
17659;DHT22;8948;51.534;8.262;2022-12-18T14:45:38;2.70;47.70
17659;DHT22;8948;51.534;8.262;2022-12-18T14:50:42;2.70;47.20
17659;DHT22;8948;51.534;8.262;2022-12-18T14:55:46;2.70;47.70
17659;DHT22;8948;51.534;8.262;2022-12-18T15:00:47;2.70;49.00
17659;DHT22;8948;51.534;8.262;2022-12-18T15:05:48;2.70;49.10
17659;DHT22;8948;51.534;8.262;2022-12-18T15:10:49;2.70;47.30
17659;DHT22;8948;51.534;8.262;2022-12-18T15:15:49;2.70;47.20
17659;DHT22;8948;51.534;8.262;2022-12-18T15:20:58;2.70;49.50
17659;DHT22;8948;51.534;8.262;2022-12-18T15:26:07;2.60;50.20
17659;DHT22;8948;51.534;8.262;2022-12-18T15:36:11;2.50;47.70
17659;DHT22;8948;51.534;8.262;2022-12-18T15:41:16;2.50;47.40
17659;DHT22;8948;51.534;8.262;2022-12-18T15:46:19;2.60;46.80
17659;DHT22;8948;51.534;8.262;2022-12-18T15:51:21;2.70;45.20
17659;DHT22;8948;51.534;8.262;2022-12-18T15:56:22;2.70;44.90
17659;DHT22;8948;51.534;8.262;2022-12-18T16:01:44;2.80;44.30
17659;DHT22;8948;51.534;8.262;2022-12-18T16:06:45;2.90;44.20
17659;DHT22;8948;51.534;8.262;2022-12-18T16:11:45;3.00;44.10
17659;DHT22;8948;51.534;8.262;2022-12-18T16:16:50;3.00;44.40
17659;DHT22;8948;51.534;8.262;2022-12-18T16:21:52;3.10;42.80
17659;DHT22;8948;51.534;8.262;2022-12-18T16:26:57;3.20;41.30
17659;DHT22;8948;51.534;8.262;2022-12-18T16:32:00;3.30;40.80
17659;DHT22;8948;51.534;8.262;2022-12-18T16:37:06;3.30;42.50
17659;DHT22;8948;51.534;8.262;2022-12-18T16:42:15;3.30;42.70
17659;DHT22;8948;51.534;8.262;2022-12-18T16:47:17;3.30;42.80
17659;DHT22;8948;51.534;8.262;2022-12-18T16:52:18;3.30;43.30
17659;DHT22;8948;51.534;8.262;2022-12-18T16:57:20;3.20;43.20
17659;DHT22;8948;51.534;8.262;2022-12-18T17:02:23;3.20;43.50
17659;DHT22;8948;51.534;8.262;2022-12-18T17:07:25;3.30;43.10
17659;DHT22;8948;51.534;8.262;2022-12-18T17:12:27;3.30;42.10
17659;DHT22;8948;51.534;8.262;2022-12-18T17:17:27;3.30;42.70
17659;DHT22;8948;51.534;8.262;2022-12-18T17:22:28;3.30;42.90
17659;DHT22;8948;51.534;8.262;2022-12-18T17:27:28;3.20;42.80
17659;DHT22;8948;51.534;8.262;2022-12-18T17:32:29;3.30;44.10
17659;DHT22;8948;51.534;8.262;2022-12-18T17:37:30;3.30;45.10
17659;DHT22;8948;51.534;8.262;2022-12-18T17:42:30;3.20;46.20
17659;DHT22;8948;51.534;8.262;2022-12-18T17:47:31;3.20;47.60
17659;DHT22;8948;51.534;8.262;2022-12-18T17:52:31;3.30;49.30
17659;DHT22;8948;51.534;8.262;2022-12-18T17:57:32;3.30;51.90
17659;DHT22;8948;51.534;8.262;2022-12-18T18:02:32;3.30;54.90
17659;DHT22;8948;51.534;8.262;2022-12-18T18:07:33;3.40;55.60
17659;DHT22;8948;51.534;8.262;2022-12-18T18:12:35;3.40;56.30
17659;DHT22;8948;51.534;8.262;2022-12-18T18:17:54;3.40;57.50
17659;DHT22;8948;51.534;8.262;2022-12-18T18:22:54;3.40;58.10
17659;DHT22;8948;51.534;8.262;2022-12-18T18:27:55;3.40;58.80
17659;DHT22;8948;51.534;8.262;2022-12-18T18:32:56;3.30;59.50
17659;DHT22;8948;51.534;8.262;2022-12-18T18:37:56;3.20;59.50
17659;DHT22;8948;51.534;8.262;2022-12-18T18:42:57;3.20;59.30
17659;DHT22;8948;51.534;8.262;2022-12-18T18:47:57;3.20;59.20
17659;DHT22;8948;51.534;8.262;2022-12-18T18:52:58;3.20;59.00
17659;DHT22;8948;51.534;8.262;2022-12-18T18:57:59;3.20;58.60
17659;DHT22;8948;51.534;8.262;2022-12-18T19:02:59;3.20;58.30
17659;DHT22;8948;51.534;8.262;2022-12-18T19:08:00;3.20;57.40
17659;DHT22;8948;51.534;8.262;2022-12-18T19:13:00;3.10;57.20
17659;DHT22;8948;51.534;8.262;2022-12-18T19:18:21;3.10;57.30
17659;DHT22;8948;51.534;8.262;2022-12-18T19:23:21;3.00;57.40
17659;DHT22;8948;51.534;8.262;2022-12-18T19:28:22;3.00;57.00
17659;DHT22;8948;51.534;8.262;2022-12-18T19:33:30;3.00;57.10
17659;DHT22;8948;51.534;8.262;2022-12-18T19:38:31;2.90;57.60
17659;DHT22;8948;51.534;8.262;2022-12-18T19:43:32;2.80;57.70
17659;DHT22;8948;51.534;8.262;2022-12-18T19:48:35;2.70;57.90
17659;DHT22;8948;51.534;8.262;2022-12-18T19:53:35;2.70;56.90
17659;DHT22;8948;51.534;8.262;2022-12-18T19:58:36;2.60;57.50
17659;DHT22;8948;51.534;8.262;2022-12-18T20:03:37;2.60;57.20
17659;DHT22;8948;51.534;8.262;2022-12-18T20:08:37;2.60;56.50
17659;DHT22;8948;51.534;8.262;2022-12-18T20:13:38;2.70;56.70
17659;DHT22;8948;51.534;8.262;2022-12-18T20:18:39;2.70;56.10
17659;DHT22;8948;51.534;8.262;2022-12-18T20:23:39;2.60;56.70
17659;DHT22;8948;51.534;8.262;2022-12-18T20:28:40;2.70;56.50
17659;DHT22;8948;51.534;8.262;2022-12-18T20:33:41;2.60;56.30
17659;DHT22;8948;51.534;8.262;2022-12-18T20:38:42;2.70;55.50
17659;DHT22;8948;51.534;8.262;2022-12-18T20:43:43;2.70;55.20
17659;DHT22;8948;51.534;8.262;2022-12-18T20:48:44;2.70;55.00
17659;DHT22;8948;51.534;8.262;2022-12-18T20:53:46;2.70;55.00
17659;DHT22;8948;51.534;8.262;2022-12-18T20:58:47;2.70;54.60
17659;DHT22;8948;51.534;8.262;2022-12-18T21:03:48;2.70;54.30
17659;DHT22;8948;51.534;8.262;2022-12-18T21:08:49;2.80;54.40
17659;DHT22;8948;51.534;8.262;2022-12-18T21:13:50;2.90;54.20
17659;DHT22;8948;51.534;8.262;2022-12-18T21:18:50;2.90;53.60
17659;DHT22;8948;51.534;8.262;2022-12-18T21:23:51;2.90;54.10
17659;DHT22;8948;51.534;8.262;2022-12-18T21:28:56;3.00;53.70
17659;DHT22;8948;51.534;8.262;2022-12-18T21:33:57;3.10;53.30
17659;DHT22;8948;51.534;8.262;2022-12-18T21:38:58;3.10;54.20
17659;DHT22;8948;51.534;8.262;2022-12-18T21:43:59;3.20;53.80
17659;DHT22;8948;51.534;8.262;2022-12-18T21:49:07;3.30;53.80
17659;DHT22;8948;51.534;8.262;2022-12-18T21:54:07;3.30;53.50
17659;DHT22;8948;51.534;8.262;2022-12-18T21:59:08;3.30;54.90
17659;DHT22;8948;51.534;8.262;2022-12-18T22:04:10;3.20;55.60
17659;DHT22;8948;51.534;8.262;2022-12-18T22:09:13;3.20;56.90
17659;DHT22;8948;51.534;8.262;2022-12-18T22:14:15;3.20;57.10
17659;DHT22;8948;51.534;8.262;2022-12-18T22:19:16;3.20;58.20
17659;DHT22;8948;51.534;8.262;2022-12-18T22:24:20;3.20;57.60
17659;DHT22;8948;51.534;8.262;2022-12-18T22:29:22;3.20;58.70
17659;DHT22;8948;51.534;8.262;2022-12-18T22:34:41;3.10;59.90
17659;DHT22;8948;51.534;8.262;2022-12-18T22:39:42;3.10;60.10
17659;DHT22;8948;51.534;8.262;2022-12-18T22:44:42;3.00;61.00
17659;DHT22;8948;51.534;8.262;2022-12-18T22:49:43;3.10;60.80
17659;DHT22;8948;51.534;8.262;2022-12-18T22:54:44;3.10;60.60
17659;DHT22;8948;51.534;8.262;2022-12-18T22:59:45;3.20;60.90
17659;DHT22;8948;51.534;8.262;2022-12-18T23:04:46;3.20;60.30
17659;DHT22;8948;51.534;8.262;2022-12-18T23:09:46;3.20;60.20
17659;DHT22;8948;51.534;8.262;2022-12-18T23:14:49;3.20;60.00
17659;DHT22;8948;51.534;8.262;2022-12-18T23:19:49;3.30;60.70
17659;DHT22;8948;51.534;8.262;2022-12-18T23:24:50;3.20;61.30
17659;DHT22;8948;51.534;8.262;2022-12-18T23:29:50;3.20;60.80
17659;DHT22;8948;51.534;8.262;2022-12-18T23:34:51;3.30;61.00
17659;DHT22;8948;51.534;8.262;2022-12-18T23:39:52;3.30;61.40
17659;DHT22;8948;51.534;8.262;2022-12-18T23:44:53;3.30;62.10
17659;DHT22;8948;51.534;8.262;2022-12-18T23:49:53;3.30;62.70
17659;DHT22;8948;51.534;8.262;2022-12-18T23:54:54;3.30;63.90
17659;DHT22;8948;51.534;8.262;2022-12-18T23:59:55;3.20;64.50
